sensor_id;sensor_type;location;lat;lon;timestamp;P1;durP1;ratioP1;P2;durP2;ratioP2
8353;SDS011;4656;48.090;11.498;2023-07-29T00:01:05;0.20;;;0.20;;
8353;SDS011;4656;48.090;11.498;2023-07-29T00:03:07;0.22;;;0.22;;
8353;SDS011;4656;48.090;11.498;2023-07-29T00:05:10;0.10;;;0.10;;
8353;SDS011;4656;48.090;11.498;2023-07-29T00:07:12;0.20;;;0.20;;
8353;SDS011;4656;48.090;11.498;2023-07-29T00:09:15;0.28;;;0.28;;
8353;SDS011;4656;48.090;11.498;2023-07-29T00:11:17;1.10;;;0.50;;
8353;SDS011;4656;48.090;11.498;2023-07-29T00:13:19;0.22;;;0.22;;
8353;SDS011;4656;48.090;11.498;2023-07-29T00:15:21;0.20;;;0.20;;
8353;SDS011;4656;48.090;11.498;2023-07-29T00:17:23;0.30;;;0.30;;
8353;SDS011;4656;48.090;11.498;2023-07-29T00:19:25;0.50;;;0.50;;
8353;SDS011;4656;48.090;11.498;2023-07-29T00:21:30;0.60;;;0.60;;
8353;SDS011;4656;48.090;11.498;2023-07-29T00:23:32;0.90;;;0.70;;
8353;SDS011;4656;48.090;11.498;2023-07-29T00:25:34;0.68;;;0.68;;
8353;SDS011;4656;48.090;11.498;2023-07-29T00:27:36;0.75;;;0.75;;
8353;SDS011;4656;48.090;11.498;2023-07-29T00:29:37;0.80;;;0.60;;
8353;SDS011;4656;48.090;11.498;2023-07-29T00:31:39;0.13;;;0.13;;
8353;SDS011;4656;48.090;11.498;2023-07-29T00:33:41;0.43;;;0.35;;
8353;SDS011;4656;48.090;11.498;2023-07-29T00:35:44;0.75;;;0.75;;
8353;SDS011;4656;48.090;11.498;2023-07-29T00:37:47;0.30;;;0.30;;
8353;SDS011;4656;48.090;11.498;2023-07-29T00:39:49;0.10;;;0.10;;
8353;SDS011;4656;48.090;11.498;2023-07-29T00:41:52;0.20;;;0.20;;
8353;SDS011;4656;48.090;11.498;2023-07-29T00:43:54;0.10;;;0.10;;
8353;SDS011;4656;48.090;11.498;2023-07-29T00:45:56;0.10;;;0.10;;
8353;SDS011;4656;48.090;11.498;2023-07-29T00:47:58;0.25;;;0.25;;
8353;SDS011;4656;48.090;11.498;2023-07-29T00:50:01;0.17;;;0.17;;
8353;SDS011;4656;48.090;11.498;2023-07-29T00:52:03;0.10;;;0.10;;
8353;SDS011;4656;48.090;11.498;2023-07-29T00:54:07;0.10;;;0.10;;
8353;SDS011;4656;48.090;11.498;2023-07-29T00:56:09;0.10;;;0.10;;
8353;SDS011;4656;48.090;11.498;2023-07-29T00:58:11;0.65;;;0.55;;
8353;SDS011;4656;48.090;11.498;2023-07-29T01:00:13;0.10;;;0.10;;
8353;SDS011;4656;48.090;11.498;2023-07-29T01:02:15;0.20;;;0.20;;
8353;SDS011;4656;48.090;11.498;2023-07-29T01:04:17;0.10;;;0.10;;
8353;SDS011;4656;48.090;11.498;2023-07-29T01:06:21;0.40;;;0.15;;
8353;SDS011;4656;48.090;11.498;2023-07-29T01:08:27;0.40;;;0.40;;
8353;SDS011;4656;48.090;11.498;2023-07-29T01:10:34;0.30;;;0.30;;
8353;SDS011;4656;48.090;11.498;2023-07-29T01:12:40;0.20;;;0.20;;
8353;SDS011;4656;48.090;11.498;2023-07-29T01:14:55;0.22;;;0.22;;
8353;SDS011;4656;48.090;11.498;2023-07-29T01:16:58;0.10;;;0.10;;
8353;SDS011;4656;48.090;11.498;2023-07-29T01:19:04;0.40;;;0.40;;
8353;SDS011;4656;48.090;11.498;2023-07-29T01:21:07;0.38;;;0.38;;
8353;SDS011;4656;48.090;11.498;2023-07-29T01:23:10;0.10;;;0.10;;
8353;SDS011;4656;48.090;11.498;2023-07-29T01:25:13;0.20;;;0.20;;
8353;SDS011;4656;48.090;11.498;2023-07-29T01:27:15;0.30;;;0.30;;
8353;SDS011;4656;48.090;11.498;2023-07-29T01:29:16;0.20;;;0.20;;
8353;SDS011;4656;48.090;11.498;2023-07-29T01:31:20;1.20;;;0.85;;
8353;SDS011;4656;48.090;11.498;2023-07-29T01:33:25;0.40;;;0.40;;
8353;SDS011;4656;48.090;11.498;2023-07-29T01:35:28;2.20;;;0.50;;
8353;SDS011;4656;48.090;11.498;2023-07-29T01:37:33;0.10;;;0.10;;
8353;SDS011;4656;48.090;11.498;2023-07-29T01:39:36;0.20;;;0.20;;
8353;SDS011;4656;48.090;11.498;2023-07-29T01:41:39;0.20;;;0.20;;
8353;SDS011;4656;48.090;11.498;2023-07-29T01:43:41;0.10;;;0.10;;
8353;SDS011;4656;48.090;11.498;2023-07-29T01:45:44;0.13;;;0.13;;
8353;SDS011;4656;48.090;11.498;2023-07-29T01:47:46;0.10;;;0.10;;
8353;SDS011;4656;48.090;11.498;2023-07-29T01:49:47;0.20;;;0.20;;
8353;SDS011;4656;48.090;11.498;2023-07-29T01:51:49;0.40;;;0.40;;
8353;SDS011;4656;48.090;11.498;2023-07-29T01:53:51;0.20;;;0.20;;
8353;SDS011;4656;48.090;11.498;2023-07-29T01:55:55;0.47;;;0.47;;
8353;SDS011;4656;48.090;11.498;2023-07-29T01:57:59;0.30;;;0.30;;
8353;SDS011;4656;48.090;11.498;2023-07-29T02:00:01;0.15;;;0.15;;
8353;SDS011;4656;48.090;11.498;2023-07-29T02:02:03;0.10;;;0.10;;
8353;SDS011;4656;48.090;11.498;2023-07-29T02:04:06;0.60;;;0.60;;
8353;SDS011;4656;48.090;11.498;2023-07-29T02:06:08;0.20;;;0.20;;
8353;SDS011;4656;48.090;11.498;2023-07-29T02:08:10;0.30;;;0.30;;
8353;SDS011;4656;48.090;11.498;2023-07-29T02:10:13;0.10;;;0.10;;
8353;SDS011;4656;48.090;11.498;2023-07-29T02:12:15;0.10;;;0.10;;
8353;SDS011;4656;48.090;11.498;2023-07-29T02:14:18;0.30;;;0.30;;
8353;SDS011;4656;48.090;11.498;2023-07-29T02:16:20;0.20;;;0.20;;
8353;SDS011;4656;48.090;11.498;2023-07-29T02:18:23;0.10;;;0.10;;
8353;SDS011;4656;48.090;11.498;2023-07-29T02:20:25;0.30;;;0.30;;
8353;SDS011;4656;48.090;11.498;2023-07-29T02:22:27;0.40;;;0.40;;
8353;SDS011;4656;48.090;11.498;2023-07-29T02:24:29;0.20;;;0.20;;
8353;SDS011;4656;48.090;11.498;2023-07-29T02:26:31;0.10;;;0.10;;
8353;SDS011;4656;48.090;11.498;2023-07-29T02:28:34;0.10;;;0.10;;
8353;SDS011;4656;48.090;11.498;2023-07-29T02:30:40;0.28;;;0.28;;
8353;SDS011;4656;48.090;11.498;2023-07-29T02:32:44;0.20;;;0.20;;
8353;SDS011;4656;48.090;11.498;2023-07-29T02:34:46;0.20;;;0.20;;
8353;SDS011;4656;48.090;11.498;2023-07-29T02:36:48;0.30;;;0.30;;
8353;SDS011;4656;48.090;11.498;2023-07-29T02:38:50;0.20;;;0.20;;
8353;SDS011;4656;48.090;11.498;2023-07-29T02:40:52;0.20;;;0.20;;
8353;SDS011;4656;48.090;11.498;2023-07-29T02:42:54;0.20;;;0.20;;
8353;SDS011;4656;48.090;11.498;2023-07-29T02:44:56;0.20;;;0.20;;
8353;SDS011;4656;48.090;11.498;2023-07-29T02:47:00;0.10;;;0.10;;
8353;SDS011;4656;48.090;11.498;2023-07-29T02:49:02;0.15;;;0.15;;
8353;SDS011;4656;48.090;11.498;2023-07-29T02:51:04;0.20;;;0.20;;
8353;SDS011;4656;48.090;11.498;2023-07-29T02:53:07;0.20;;;0.20;;
8353;SDS011;4656;48.090;11.498;2023-07-29T02:55:09;0.40;;;0.40;;
8353;SDS011;4656;48.090;11.498;2023-07-29T02:57:13;0.20;;;0.20;;
8353;SDS011;4656;48.090;11.498;2023-07-29T02:59:15;0.20;;;0.20;;
8353;SDS011;4656;48.090;11.498;2023-07-29T03:01:17;0.40;;;0.40;;
8353;SDS011;4656;48.090;11.498;2023-07-29T03:03:21;0.10;;;0.10;;
8353;SDS011;4656;48.090;11.498;2023-07-29T03:05:23;0.20;;;0.20;;
8353;SDS011;4656;48.090;11.498;2023-07-29T03:07:25;0.20;;;0.20;;
8353;SDS011;4656;48.090;11.498;2023-07-29T03:09:27;0.70;;;0.70;;
8353;SDS011;4656;48.090;11.498;2023-07-29T03:11:28;0.45;;;0.45;;
8353;SDS011;4656;48.090;11.498;2023-07-29T03:13:31;0.30;;;0.30;;
8353;SDS011;4656;48.090;11.498;2023-07-29T03:15:33;0.30;;;0.30;;
8353;SDS011;4656;48.090;11.498;2023-07-29T03:17:35;0.90;;;0.50;;
8353;SDS011;4656;48.090;11.498;2023-07-29T03:19:38;0.20;;;0.20;;
8353;SDS011;4656;48.090;11.498;2023-07-29T03:21:40;0.10;;;0.10;;
8353;SDS011;4656;48.090;11.498;2023-07-29T03:23:42;0.30;;;0.30;;
8353;SDS011;4656;48.090;11.498;2023-07-29T03:25:47;0.17;;;0.17;;
8353;SDS011;4656;48.090;11.498;2023-07-29T03:27:48;0.20;;;0.20;;
8353;SDS011;4656;48.090;11.498;2023-07-29T03:29:51;0.50;;;0.30;;
8353;SDS011;4656;48.090;11.498;2023-07-29T03:31:53;0.43;;;0.43;;
8353;SDS011;4656;48.090;11.498;2023-07-29T03:33:55;0.40;;;0.40;;
8353;SDS011;4656;48.090;11.498;2023-07-29T03:35:58;0.20;;;0.20;;
8353;SDS011;4656;48.090;11.498;2023-07-29T03:38:00;0.20;;;0.20;;
8353;SDS011;4656;48.090;11.498;2023-07-29T03:40:03;0.30;;;0.30;;
8353;SDS011;4656;48.090;11.498;2023-07-29T03:42:05;0.10;;;0.10;;
8353;SDS011;4656;48.090;11.498;2023-07-29T03:44:08;0.10;;;0.10;;
8353;SDS011;4656;48.090;11.498;2023-07-29T03:46:10;0.20;;;0.20;;
8353;SDS011;4656;48.090;11.498;2023-07-29T03:48:13;0.28;;;0.28;;
8353;SDS011;4656;48.090;11.498;2023-07-29T03:50:15;0.60;;;0.60;;
8353;SDS011;4656;48.090;11.498;2023-07-29T03:52:19;1.37;;;1.00;;
8353;SDS011;4656;48.090;11.498;2023-07-29T03:54:21;0.15;;;0.15;;
8353;SDS011;4656;48.090;11.498;2023-07-29T03:56:23;0.20;;;0.20;;
8353;SDS011;4656;48.090;11.498;2023-07-29T03:58:25;0.30;;;0.30;;
8353;SDS011;4656;48.090;11.498;2023-07-29T04:00:27;0.10;;;0.10;;
8353;SDS011;4656;48.090;11.498;2023-07-29T04:02:29;0.20;;;0.20;;
8353;SDS011;4656;48.090;11.498;2023-07-29T04:04:31;0.30;;;0.30;;
8353;SDS011;4656;48.090;11.498;2023-07-29T04:06:33;0.17;;;0.17;;
8353;SDS011;4656;48.090;11.498;2023-07-29T04:08:37;0.20;;;0.20;;
8353;SDS011;4656;48.090;11.498;2023-07-29T04:10:39;0.20;;;0.20;;
8353;SDS011;4656;48.090;11.498;2023-07-29T04:12:41;0.20;;;0.20;;
8353;SDS011;4656;48.090;11.498;2023-07-29T04:14:43;0.30;;;0.30;;
8353;SDS011;4656;48.090;11.498;2023-07-29T04:16:45;0.90;;;0.80;;
8353;SDS011;4656;48.090;11.498;2023-07-29T04:18:46;0.20;;;0.20;;
8353;SDS011;4656;48.090;11.498;2023-07-29T04:20:48;0.22;;;0.22;;
8353;SDS011;4656;48.090;11.498;2023-07-29T04:22:51;0.20;;;0.20;;
8353;SDS011;4656;48.090;11.498;2023-07-29T04:24:54;0.20;;;0.20;;
8353;SDS011;4656;48.090;11.498;2023-07-29T04:26:56;0.15;;;0.15;;
8353;SDS011;4656;48.090;11.498;2023-07-29T04:28:58;0.30;;;0.30;;
8353;SDS011;4656;48.090;11.498;2023-07-29T04:31:00;0.25;;;0.25;;
8353;SDS011;4656;48.090;11.498;2023-07-29T04:33:02;0.50;;;0.50;;
8353;SDS011;4656;48.090;11.498;2023-07-29T04:35:05;0.20;;;0.20;;
8353;SDS011;4656;48.090;11.498;2023-07-29T04:37:07;0.40;;;0.40;;
8353;SDS011;4656;48.090;11.498;2023-07-29T04:39:10;0.13;;;0.13;;
8353;SDS011;4656;48.090;11.498;2023-07-29T04:41:13;0.30;;;0.30;;
8353;SDS011;4656;48.090;11.498;2023-07-29T04:43:15;0.28;;;0.28;;
8353;SDS011;4656;48.090;11.498;2023-07-29T04:45:17;0.20;;;0.20;;
8353;SDS011;4656;48.090;11.498;2023-07-29T04:47:18;0.10;;;0.10;;
8353;SDS011;4656;48.090;11.498;2023-07-29T04:49:20;0.35;;;0.35;;
8353;SDS011;4656;48.090;11.498;2023-07-29T04:51:22;0.15;;;0.15;;
8353;SDS011;4656;48.090;11.498;2023-07-29T04:53:24;0.60;;;0.60;;
8353;SDS011;4656;48.090;11.498;2023-07-29T04:55:26;0.10;;;0.10;;
8353;SDS011;4656;48.090;11.498;2023-07-29T04:57:29;0.20;;;0.20;;
8353;SDS011;4656;48.090;11.498;2023-07-29T04:59:30;0.10;;;0.10;;
8353;SDS011;4656;48.090;11.498;2023-07-29T05:01:32;0.10;;;0.10;;
8353;SDS011;4656;48.090;11.498;2023-07-29T05:03:35;0.10;;;0.10;;
8353;SDS011;4656;48.090;11.498;2023-07-29T05:05:39;0.10;;;0.10;;
8353;SDS011;4656;48.090;11.498;2023-07-29T05:07:41;0.20;;;0.20;;
8353;SDS011;4656;48.090;11.498;2023-07-29T05:09:44;0.10;;;0.10;;
8353;SDS011;4656;48.090;11.498;2023-07-29T05:11:46;0.20;;;0.20;;
8353;SDS011;4656;48.090;11.498;2023-07-29T05:13:50;0.10;;;0.10;;
8353;SDS011;4656;48.090;11.498;2023-07-29T05:15:52;0.10;;;0.10;;
8353;SDS011;4656;48.090;11.498;2023-07-29T05:17:54;0.50;;;0.50;;
8353;SDS011;4656;48.090;11.498;2023-07-29T05:19:56;0.10;;;0.10;;
8353;SDS011;4656;48.090;11.498;2023-07-29T05:21:58;0.10;;;0.10;;
8353;SDS011;4656;48.090;11.498;2023-07-29T05:24:00;0.20;;;0.10;;
8353;SDS011;4656;48.090;11.498;2023-07-29T05:26:03;0.25;;;0.25;;
8353;SDS011;4656;48.090;11.498;2023-07-29T05:28:05;0.30;;;0.30;;
8353;SDS011;4656;48.090;11.498;2023-07-29T05:30:09;0.40;;;0.40;;
8353;SDS011;4656;48.090;11.498;2023-07-29T05:32:10;0.10;;;0.10;;
8353;SDS011;4656;48.090;11.498;2023-07-29T05:34:12;0.30;;;0.30;;
8353;SDS011;4656;48.090;11.498;2023-07-29T05:36:14;0.10;;;0.10;;
8353;SDS011;4656;48.090;11.498;2023-07-29T05:38:16;0.50;;;0.50;;
8353;SDS011;4656;48.090;11.498;2023-07-29T05:40:20;0.10;;;0.10;;
8353;SDS011;4656;48.090;11.498;2023-07-29T05:42:22;0.30;;;0.30;;
8353;SDS011;4656;48.090;11.498;2023-07-29T05:44:25;0.10;;;0.10;;
8353;SDS011;4656;48.090;11.498;2023-07-29T05:46:28;0.40;;;0.40;;
8353;SDS011;4656;48.090;11.498;2023-07-29T05:48:30;0.20;;;0.20;;
8353;SDS011;4656;48.090;11.498;2023-07-29T05:50:33;0.13;;;0.13;;
8353;SDS011;4656;48.090;11.498;2023-07-29T05:52:36;0.10;;;0.10;;
8353;SDS011;4656;48.090;11.498;2023-07-29T05:54:38;0.20;;;0.20;;
8353;SDS011;4656;48.090;11.498;2023-07-29T05:56:42;2.30;;;0.70;;
8353;SDS011;4656;48.090;11.498;2023-07-29T05:58:44;0.40;;;0.40;;
8353;SDS011;4656;48.090;11.498;2023-07-29T06:00:46;0.20;;;0.20;;
8353;SDS011;4656;48.090;11.498;2023-07-29T06:02:50;0.10;;;0.10;;
8353;SDS011;4656;48.090;11.498;2023-07-29T06:04:52;0.10;;;0.10;;
8353;SDS011;4656;48.090;11.498;2023-07-29T06:06:54;0.33;;;0.33;;
8353;SDS011;4656;48.090;11.498;2023-07-29T06:08:56;0.00;;;0.00;;
8353;SDS011;4656;48.090;11.498;2023-07-29T06:10:59;0.10;;;0.10;;
8353;SDS011;4656;48.090;11.498;2023-07-29T06:13:01;0.13;;;0.13;;
8353;SDS011;4656;48.090;11.498;2023-07-29T06:15:03;0.20;;;0.20;;
8353;SDS011;4656;48.090;11.498;2023-07-29T06:17:05;0.10;;;0.10;;
8353;SDS011;4656;48.090;11.498;2023-07-29T06:19:09;1.00;;;1.00;;
8353;SDS011;4656;48.090;11.498;2023-07-29T06:21:11;0.25;;;0.25;;
8353;SDS011;4656;48.090;11.498;2023-07-29T06:23:17;0.10;;;0.10;;
8353;SDS011;4656;48.090;11.498;2023-07-29T06:25:19;0.20;;;0.20;;
8353;SDS011;4656;48.090;11.498;2023-07-29T06:27:22;0.17;;;0.17;;
8353;SDS011;4656;48.090;11.498;2023-07-29T06:29:25;0.10;;;0.10;;
8353;SDS011;4656;48.090;11.498;2023-07-29T06:31:27;0.17;;;0.17;;
8353;SDS011;4656;48.090;11.498;2023-07-29T06:33:29;0.10;;;0.10;;
8353;SDS011;4656;48.090;11.498;2023-07-29T06:35:33;0.20;;;0.20;;
8353;SDS011;4656;48.090;11.498;2023-07-29T06:37:35;0.10;;;0.10;;
8353;SDS011;4656;48.090;11.498;2023-07-29T06:39:37;0.20;;;0.20;;
8353;SDS011;4656;48.090;11.498;2023-07-29T06:41:39;0.05;;;0.05;;
8353;SDS011;4656;48.090;11.498;2023-07-29T06:43:41;0.10;;;0.10;;
8353;SDS011;4656;48.090;11.498;2023-07-29T06:45:44;0.20;;;0.20;;
8353;SDS011;4656;48.090;11.498;2023-07-29T06:47:46;0.40;;;0.20;;
8353;SDS011;4656;48.090;11.498;2023-07-29T06:49:48;0.30;;;0.30;;
8353;SDS011;4656;48.090;11.498;2023-07-29T06:51:50;0.10;;;0.10;;
8353;SDS011;4656;48.090;11.498;2023-07-29T06:53:52;0.10;;;0.10;;
8353;SDS011;4656;48.090;11.498;2023-07-29T06:55:54;0.20;;;0.20;;
8353;SDS011;4656;48.090;11.498;2023-07-29T06:57:57;0.20;;;0.20;;
8353;SDS011;4656;48.090;11.498;2023-07-29T06:59:59;0.50;;;0.50;;
8353;SDS011;4656;48.090;11.498;2023-07-29T07:02:01;0.25;;;0.25;;
8353;SDS011;4656;48.090;11.498;2023-07-29T07:04:03;0.30;;;0.30;;
8353;SDS011;4656;48.090;11.498;2023-07-29T07:06:05;0.20;;;0.20;;
8353;SDS011;4656;48.090;11.498;2023-07-29T07:08:09;0.20;;;0.20;;
8353;SDS011;4656;48.090;11.498;2023-07-29T07:10:11;0.80;;;0.80;;
8353;SDS011;4656;48.090;11.498;2023-07-29T07:12:13;1.10;;;0.60;;
8353;SDS011;4656;48.090;11.498;2023-07-29T07:14:14;0.07;;;0.07;;
8353;SDS011;4656;48.090;11.498;2023-07-29T07:16:16;0.10;;;0.10;;
8353;SDS011;4656;48.090;11.498;2023-07-29T07:18:18;0.10;;;0.10;;
8353;SDS011;4656;48.090;11.498;2023-07-29T07:20:22;0.35;;;0.35;;
8353;SDS011;4656;48.090;11.498;2023-07-29T07:22:24;0.20;;;0.20;;
8353;SDS011;4656;48.090;11.498;2023-07-29T07:24:27;0.15;;;0.15;;
8353;SDS011;4656;48.090;11.498;2023-07-29T07:26:29;0.30;;;0.30;;
8353;SDS011;4656;48.090;11.498;2023-07-29T07:28:32;0.30;;;0.30;;
8353;SDS011;4656;48.090;11.498;2023-07-29T07:30:34;0.17;;;0.17;;
8353;SDS011;4656;48.090;11.498;2023-07-29T07:32:36;0.30;;;0.30;;
8353;SDS011;4656;48.090;11.498;2023-07-29T07:34:38;0.10;;;0.10;;
8353;SDS011;4656;48.090;11.498;2023-07-29T07:36:41;0.25;;;0.25;;
8353;SDS011;4656;48.090;11.498;2023-07-29T07:38:42;0.40;;;0.40;;
8353;SDS011;4656;48.090;11.498;2023-07-29T07:40:53;0.22;;;0.20;;
8353;SDS011;4656;48.090;11.498;2023-07-29T07:42:56;0.20;;;0.20;;
8353;SDS011;4656;48.090;11.498;2023-07-29T07:44:58;0.10;;;0.10;;
8353;SDS011;4656;48.090;11.498;2023-07-29T07:47:00;0.17;;;0.17;;
8353;SDS011;4656;48.090;11.498;2023-07-29T07:49:02;0.50;;;0.25;;
8353;SDS011;4656;48.090;11.498;2023-07-29T07:51:09;0.10;;;0.10;;
8353;SDS011;4656;48.090;11.498;2023-07-29T07:53:12;0.25;;;0.13;;
8353;SDS011;4656;48.090;11.498;2023-07-29T07:55:14;0.22;;;0.22;;
8353;SDS011;4656;48.090;11.498;2023-07-29T07:57:17;0.40;;;0.40;;
8353;SDS011;4656;48.090;11.498;2023-07-29T07:59:19;0.20;;;0.20;;
8353;SDS011;4656;48.090;11.498;2023-07-29T08:01:22;0.10;;;0.10;;
8353;SDS011;4656;48.090;11.498;2023-07-29T08:03:24;0.20;;;0.20;;
8353;SDS011;4656;48.090;11.498;2023-07-29T08:05:26;0.10;;;0.10;;
8353;SDS011;4656;48.090;11.498;2023-07-29T08:07:28;0.10;;;0.10;;
8353;SDS011;4656;48.090;11.498;2023-07-29T08:09:30;0.30;;;0.30;;
8353;SDS011;4656;48.090;11.498;2023-07-29T08:11:32;0.30;;;0.30;;
8353;SDS011;4656;48.090;11.498;2023-07-29T08:13:36;0.10;;;0.10;;
8353;SDS011;4656;48.090;11.498;2023-07-29T08:15:38;0.10;;;0.10;;
8353;SDS011;4656;48.090;11.498;2023-07-29T08:17:41;0.20;;;0.20;;
8353;SDS011;4656;48.090;11.498;2023-07-29T08:19:43;0.10;;;0.10;;
8353;SDS011;4656;48.090;11.498;2023-07-29T08:21:45;0.28;;;0.28;;
8353;SDS011;4656;48.090;11.498;2023-07-29T08:23:47;0.40;;;0.40;;
8353;SDS011;4656;48.090;11.498;2023-07-29T08:25:51;0.10;;;0.10;;
8353;SDS011;4656;48.090;11.498;2023-07-29T08:27:53;0.30;;;0.30;;
8353;SDS011;4656;48.090;11.498;2023-07-29T08:29:57;0.10;;;0.10;;
8353;SDS011;4656;48.090;11.498;2023-07-29T08:31:59;0.20;;;0.20;;
8353;SDS011;4656;48.090;11.498;2023-07-29T08:34:01;0.30;;;0.20;;
8353;SDS011;4656;48.090;11.498;2023-07-29T08:36:03;0.10;;;0.10;;
8353;SDS011;4656;48.090;11.498;2023-07-29T08:38:06;0.13;;;0.13;;
8353;SDS011;4656;48.090;11.498;2023-07-29T08:40:07;0.10;;;0.10;;
8353;SDS011;4656;48.090;11.498;2023-07-29T08:42:11;0.20;;;0.20;;
8353;SDS011;4656;48.090;11.498;2023-07-29T08:44:16;0.30;;;0.30;;
8353;SDS011;4656;48.090;11.498;2023-07-29T08:46:21;0.13;;;0.13;;
8353;SDS011;4656;48.090;11.498;2023-07-29T08:48:32;0.20;;;0.20;;
8353;SDS011;4656;48.090;11.498;2023-07-29T08:50:36;0.20;;;0.20;;
8353;SDS011;4656;48.090;11.498;2023-07-29T08:52:38;0.30;;;0.30;;
8353;SDS011;4656;48.090;11.498;2023-07-29T08:54:40;0.40;;;0.40;;
8353;SDS011;4656;48.090;11.498;2023-07-29T08:56:42;0.22;;;0.22;;
8353;SDS011;4656;48.090;11.498;2023-07-29T08:58:45;0.22;;;0.22;;
8353;SDS011;4656;48.090;11.498;2023-07-29T09:00:47;0.10;;;0.10;;
8353;SDS011;4656;48.090;11.498;2023-07-29T09:02:51;0.20;;;0.20;;
8353;SDS011;4656;48.090;11.498;2023-07-29T09:04:53;0.10;;;0.10;;
8353;SDS011;4656;48.090;11.498;2023-07-29T09:06:55;0.90;;;0.30;;
8353;SDS011;4656;48.090;11.498;2023-07-29T09:08:58;0.40;;;0.38;;
8353;SDS011;4656;48.090;11.498;2023-07-29T09:11:00;0.10;;;0.10;;
8353;SDS011;4656;48.090;11.498;2023-07-29T09:13:02;0.28;;;0.28;;
8353;SDS011;4656;48.090;11.498;2023-07-29T09:15:06;0.20;;;0.20;;
8353;SDS011;4656;48.090;11.498;2023-07-29T09:17:09;0.47;;;0.47;;
8353;SDS011;4656;48.090;11.498;2023-07-29T09:19:13;0.20;;;0.20;;
8353;SDS011;4656;48.090;11.498;2023-07-29T09:21:15;0.25;;;0.25;;
8353;SDS011;4656;48.090;11.498;2023-07-29T09:23:17;0.30;;;0.30;;
8353;SDS011;4656;48.090;11.498;2023-07-29T09:25:22;0.73;;;0.23;;
8353;SDS011;4656;48.090;11.498;2023-07-29T09:27:23;0.20;;;0.20;;
8353;SDS011;4656;48.090;11.498;2023-07-29T09:29:27;0.30;;;0.30;;
8353;SDS011;4656;48.090;11.498;2023-07-29T09:31:30;0.10;;;0.10;;
8353;SDS011;4656;48.090;11.498;2023-07-29T09:33:33;0.32;;;0.32;;
8353;SDS011;4656;48.090;11.498;2023-07-29T09:37:51;0.20;;;0.20;;
8353;SDS011;4656;48.090;11.498;2023-07-29T09:39:54;0.60;;;0.20;;
8353;SDS011;4656;48.090;11.498;2023-07-29T09:41:56;0.25;;;0.25;;
8353;SDS011;4656;48.090;11.498;2023-07-29T09:43:58;0.10;;;0.10;;
8353;SDS011;4656;48.090;11.498;2023-07-29T09:46:01;0.20;;;0.20;;
8353;SDS011;4656;48.090;11.498;2023-07-29T09:48:04;0.10;;;0.10;;
8353;SDS011;4656;48.090;11.498;2023-07-29T09:50:10;0.20;;;0.20;;
8353;SDS011;4656;48.090;11.498;2023-07-29T09:52:13;0.20;;;0.20;;
8353;SDS011;4656;48.090;11.498;2023-07-29T09:54:17;0.10;;;0.10;;
8353;SDS011;4656;48.090;11.498;2023-07-29T09:56:23;0.20;;;0.20;;
8353;SDS011;4656;48.090;11.498;2023-07-29T09:58:26;0.20;;;0.20;;
8353;SDS011;4656;48.090;11.498;2023-07-29T10:00:28;0.30;;;0.30;;
8353;SDS011;4656;48.090;11.498;2023-07-29T10:02:29;0.30;;;0.20;;
8353;SDS011;4656;48.090;11.498;2023-07-29T10:04:31;3.17;;;0.40;;
8353;SDS011;4656;48.090;11.498;2023-07-29T10:06:34;0.10;;;0.10;;
8353;SDS011;4656;48.090;11.498;2023-07-29T10:08:35;0.10;;;0.10;;
8353;SDS011;4656;48.090;11.498;2023-07-29T10:10:39;0.40;;;0.30;;
8353;SDS011;4656;48.090;11.498;2023-07-29T10:12:43;0.20;;;0.20;;
8353;SDS011;4656;48.090;11.498;2023-07-29T10:14:45;0.35;;;0.20;;
8353;SDS011;4656;48.090;11.498;2023-07-29T10:16:48;0.10;;;0.10;;
8353;SDS011;4656;48.090;11.498;2023-07-29T10:18:51;0.13;;;0.13;;
8353;SDS011;4656;48.090;11.498;2023-07-29T10:20:54;0.40;;;0.40;;
8353;SDS011;4656;48.090;11.498;2023-07-29T10:22:59;0.13;;;0.13;;
8353;SDS011;4656;48.090;11.498;2023-07-29T10:25:02;0.20;;;0.20;;
8353;SDS011;4656;48.090;11.498;2023-07-29T10:27:06;0.10;;;0.10;;
8353;SDS011;4656;48.090;11.498;2023-07-29T10:29:12;0.20;;;0.20;;
8353;SDS011;4656;48.090;11.498;2023-07-29T10:31:15;0.10;;;0.10;;
8353;SDS011;4656;48.090;11.498;2023-07-29T10:33:17;0.10;;;0.10;;
8353;SDS011;4656;48.090;11.498;2023-07-29T10:35:20;0.10;;;0.10;;
8353;SDS011;4656;48.090;11.498;2023-07-29T10:37:21;0.20;;;0.20;;
8353;SDS011;4656;48.090;11.498;2023-07-29T10:39:24;0.20;;;0.20;;
8353;SDS011;4656;48.090;11.498;2023-07-29T10:43:45;0.17;;;0.17;;
8353;SDS011;4656;48.090;11.498;2023-07-29T10:45:47;0.10;;;0.10;;
8353;SDS011;4656;48.090;11.498;2023-07-29T10:47:48;0.20;;;0.20;;
8353;SDS011;4656;48.090;11.498;2023-07-29T10:49:51;0.22;;;0.22;;
8353;SDS011;4656;48.090;11.498;2023-07-29T10:51:54;2.20;;;1.70;;
8353;SDS011;4656;48.090;11.498;2023-07-29T10:53:57;0.10;;;0.10;;
8353;SDS011;4656;48.090;11.498;2023-07-29T10:55:59;0.57;;;0.50;;
8353;SDS011;4656;48.090;11.498;2023-07-29T10:58:15;0.20;;;0.20;;
8353;SDS011;4656;48.090;11.498;2023-07-29T11:00:20;0.25;;;0.25;;
8353;SDS011;4656;48.090;11.498;2023-07-29T11:02:28;0.82;;;0.47;;
8353;SDS011;4656;48.090;11.498;2023-07-29T11:04:29;0.17;;;0.17;;
8353;SDS011;4656;48.090;11.498;2023-07-29T11:06:33;0.40;;;0.40;;
8353;SDS011;4656;48.090;11.498;2023-07-29T11:08:55;1.20;;;0.50;;
8353;SDS011;4656;48.090;11.498;2023-07-29T11:10:57;0.20;;;0.20;;
8353;SDS011;4656;48.090;11.498;2023-07-29T11:12:59;0.30;;;0.30;;
8353;SDS011;4656;48.090;11.498;2023-07-29T11:15:02;1.20;;;0.80;;
8353;SDS011;4656;48.090;11.498;2023-07-29T11:17:05;0.10;;;0.10;;
8353;SDS011;4656;48.090;11.498;2023-07-29T11:19:07;0.20;;;0.20;;
8353;SDS011;4656;48.090;11.498;2023-07-29T11:21:13;0.10;;;0.10;;
8353;SDS011;4656;48.090;11.498;2023-07-29T11:23:15;0.15;;;0.15;;
8353;SDS011;4656;48.090;11.498;2023-07-29T11:25:17;0.28;;;0.28;;
8353;SDS011;4656;48.090;11.498;2023-07-29T11:27:20;0.32;;;0.32;;
8353;SDS011;4656;48.090;11.498;2023-07-29T11:29:21;0.15;;;0.15;;
8353;SDS011;4656;48.090;11.498;2023-07-29T11:31:26;0.20;;;0.20;;
8353;SDS011;4656;48.090;11.498;2023-07-29T11:33:41;0.20;;;0.20;;
8353;SDS011;4656;48.090;11.498;2023-07-29T11:35:43;0.20;;;0.20;;
8353;SDS011;4656;48.090;11.498;2023-07-29T11:37:46;0.17;;;0.17;;
8353;SDS011;4656;48.090;11.498;2023-07-29T11:39:48;0.20;;;0.20;;
8353;SDS011;4656;48.090;11.498;2023-07-29T11:41:51;0.10;;;0.10;;
8353;SDS011;4656;48.090;11.498;2023-07-29T11:43:53;0.20;;;0.20;;
8353;SDS011;4656;48.090;11.498;2023-07-29T11:45:55;0.30;;;0.30;;
8353;SDS011;4656;48.090;11.498;2023-07-29T11:48:00;0.20;;;0.20;;
8353;SDS011;4656;48.090;11.498;2023-07-29T11:50:04;1.00;;;0.60;;
8353;SDS011;4656;48.090;11.498;2023-07-29T11:52:07;0.10;;;0.10;;
8353;SDS011;4656;48.090;11.498;2023-07-29T11:54:09;0.70;;;0.40;;
8353;SDS011;4656;48.090;11.498;2023-07-29T11:56:11;2.10;;;1.80;;
8353;SDS011;4656;48.090;11.498;2023-07-29T11:58:14;2.00;;;1.80;;
8353;SDS011;4656;48.090;11.498;2023-07-29T12:00:17;3.40;;;1.88;;
8353;SDS011;4656;48.090;11.498;2023-07-29T12:02:20;1.98;;;1.88;;
8353;SDS011;4656;48.090;11.498;2023-07-29T12:04:22;2.58;;;1.90;;
8353;SDS011;4656;48.090;11.498;2023-07-29T12:06:26;2.63;;;1.90;;
8353;SDS011;4656;48.090;11.498;2023-07-29T12:08:31;2.10;;;1.90;;
8353;SDS011;4656;48.090;11.498;2023-07-29T12:10:33;2.00;;;1.80;;
8353;SDS011;4656;48.090;11.498;2023-07-29T12:12:38;2.25;;;1.77;;
8353;SDS011;4656;48.090;11.498;2023-07-29T12:14:43;2.28;;;2.03;;
8353;SDS011;4656;48.090;11.498;2023-07-29T12:16:47;1.93;;;1.83;;
8353;SDS011;4656;48.090;11.498;2023-07-29T12:18:50;1.87;;;1.77;;
8353;SDS011;4656;48.090;11.498;2023-07-29T12:20:52;1.80;;;1.70;;
8353;SDS011;4656;48.090;11.498;2023-07-29T12:22:56;2.85;;;2.03;;
8353;SDS011;4656;48.090;11.498;2023-07-29T12:24:58;2.70;;;2.00;;
8353;SDS011;4656;48.090;11.498;2023-07-29T12:27:01;2.28;;;1.90;;
8353;SDS011;4656;48.090;11.498;2023-07-29T12:29:10;2.40;;;2.20;;
8353;SDS011;4656;48.090;11.498;2023-07-29T12:31:12;2.77;;;1.93;;
8353;SDS011;4656;48.090;11.498;2023-07-29T12:33:28;2.35;;;1.90;;
8353;SDS011;4656;48.090;11.498;2023-07-29T12:35:35;3.77;;;1.93;;